Aviation Digital Data Service (ADDS)

Output produced by METARs form (0956 UTC 19 January 2019)
found at http://www.aviationweather.gov/metar/data/
 
METAR text: MUGM 190856Z 34005KT 9999 FEW030 FEW110 20/19 A3001 RMK SLP161 T02010189 56008
Conditions at: MUGM (GUANTANAMO BAY , CU) observed 0856 UTC 19 January 2019
Temperature: 20.1°C (68°F)
Dewpoint: 18.9°C (66°F) [RH = 93%]
Pressure (altimeter): 30.01 inches Hg (1016.3 mb)
[Sea-level pressure: 1016.1 mb]
Winds: from the NNW (340 degrees) at 6 MPH (5 knots; 2.6 m/s)
Visibility: 6 or more miles (10+ km)
Ceiling: at least 12,000 feet AGL
Clouds: few clouds at 3000 feet AGL
few clouds at 11000 feet AGL
Weather: no significant weather observed at this time

METAR text: MUGM 190756Z 35007KT 9999 FEW030 FEW110 20/19 A3001 RMK SLP162 T02040190
Conditions at: MUGM (GUANTANAMO BAY , CU) observed 0756 UTC 19 January 2019
Temperature: 20.4°C (69°F)
Dewpoint: 19.0°C (66°F) [RH = 92%]
Pressure (altimeter): 30.01 inches Hg (1016.3 mb)
[Sea-level pressure: 1016.2 mb]
Winds: from the N (350 degrees) at 8 MPH (7 knots; 3.6 m/s)
Visibility: 6 or more miles (10+ km)
Ceiling: at least 12,000 feet AGL
Clouds: few clouds at 3000 feet AGL
few clouds at 11000 feet AGL
Weather: no significant weather observed at this time

METAR text: MUGM 190656Z 34006KT 9999 FEW030 FEW110 21/19 A3002 RMK SLP165 T02090193
Conditions at: MUGM (GUANTANAMO BAY , CU) observed 0656 UTC 19 January 2019
Temperature: 20.9°C (70°F)
Dewpoint: 19.3°C (67°F) [RH = 91%]
Pressure (altimeter): 30.02 inches Hg (1016.7 mb)
[Sea-level pressure: 1016.5 mb]
Winds: from the NNW (340 degrees) at 7 MPH (6 knots; 3.1 m/s)
Visibility: 6 or more miles (10+ km)
Ceiling: at least 12,000 feet AGL
Clouds: few clouds at 3000 feet AGL
few clouds at 11000 feet AGL
Weather: no significant weather observed at this time

METAR text: MUGM 190556Z 33008KT 9999 FEW030 FEW110 22/20 A3003 RMK SLP169 T02160200 10262 20216 58007
Conditions at: MUGM (GUANTANAMO BAY , CU) observed 0556 UTC 19 January 2019
Temperature: 21.6°C (71°F)
Dewpoint: 20.0°C (68°F) [RH = 91%]
Pressure (altimeter): 30.03 inches Hg (1017.0 mb)
[Sea-level pressure: 1016.9 mb]
Winds: from the NNW (330 degrees) at 9 MPH (8 knots; 4.1 m/s)
Visibility: 6 or more miles (10+ km)
Ceiling: at least 12,000 feet AGL
Clouds: few clouds at 3000 feet AGL
few clouds at 11000 feet AGL
Weather: no significant weather observed at this time

METAR text: MUGM 190456Z 34007KT 9999 FEW030 FEW110 22/20 A3005 RMK SLP174 T02150198 402810198
Conditions at: MUGM (GUANTANAMO BAY , CU) observed 0456 UTC 19 January 2019
Temperature: 21.5°C (71°F)
Dewpoint: 19.8°C (68°F) [RH = 90%]
Pressure (altimeter): 30.05 inches Hg (1017.7 mb)
[Sea-level pressure: 1017.4 mb]
Winds: from the NNW (340 degrees) at 8 MPH (7 knots; 3.6 m/s)
Visibility: 6 or more miles (10+ km)
Ceiling: at least 12,000 feet AGL
Clouds: few clouds at 3000 feet AGL
few clouds at 11000 feet AGL
Weather: no significant weather observed at this time

METAR text: MUGM 190356Z 34006KT 9999 FEW030 SCT110 22/20 A3006 RMK SLP178 T02210202
Conditions at: MUGM (GUANTANAMO BAY , CU) observed 0356 UTC 19 January 2019
Temperature: 22.1°C (72°F)
Dewpoint: 20.2°C (68°F) [RH = 89%]
Pressure (altimeter): 30.06 inches Hg (1018.0 mb)
[Sea-level pressure: 1017.8 mb]
Winds: from the NNW (340 degrees) at 7 MPH (6 knots; 3.1 m/s)
Visibility: 6 or more miles (10+ km)
Ceiling: at least 12,000 feet AGL
Clouds: few clouds at 3000 feet AGL
scattered clouds at 11000 feet AGL
Weather: no significant weather observed at this time

METAR text: MUGM 190256Z 32005KT 9999 FEW030 SCT100 22/21 A3005 RMK SLP176 T02240208 51015
Conditions at: MUGM (GUANTANAMO BAY , CU) observed 0256 UTC 19 January 2019
Temperature: 22.4°C (72°F)
Dewpoint: 20.8°C (69°F) [RH = 91%]
Pressure (altimeter): 30.05 inches Hg (1017.7 mb)
[Sea-level pressure: 1017.6 mb]
Winds: from the NW (320 degrees) at 6 MPH (5 knots; 2.6 m/s)
Visibility: 6 or more miles (10+ km)
Ceiling: at least 12,000 feet AGL
Clouds: few clouds at 3000 feet AGL
scattered clouds at 10000 feet AGL
Weather: no significant weather observed at this time

METAR text: MUGM 190156Z 33007KT 9999 FEW030 SCT110 23/21 A3004 RMK SLP172 T02250209
Conditions at: MUGM (GUANTANAMO BAY , CU) observed 0156 UTC 19 January 2019
Temperature: 22.5°C (72°F)
Dewpoint: 20.9°C (70°F) [RH = 91%]
Pressure (altimeter): 30.04 inches Hg (1017.4 mb)
[Sea-level pressure: 1017.2 mb]
Winds: from the NNW (330 degrees) at 8 MPH (7 knots; 3.6 m/s)
Visibility: 6 or more miles (10+ km)
Ceiling: at least 12,000 feet AGL
Clouds: few clouds at 3000 feet AGL
scattered clouds at 11000 feet AGL
Weather: no significant weather observed at this time

METAR text: MUGM 190056Z 34004KT 9999 FEW030 BKN110 24/21 A3002 RMK SLP167 T02420217
Conditions at: MUGM (GUANTANAMO BAY , CU) observed 0056 UTC 19 January 2019
Temperature: 24.2°C (76°F)
Dewpoint: 21.7°C (71°F) [RH = 86%]
Pressure (altimeter): 30.02 inches Hg (1016.7 mb)
[Sea-level pressure: 1016.7 mb]
Winds: from the NNW (340 degrees) at 5 MPH (4 knots; 2.1 m/s)
Visibility: 6 or more miles (10+ km)
Ceiling: 11000 feet AGL
Clouds: few clouds at 3000 feet AGL
broken clouds at 11000 feet AGL
Weather: no significant weather observed at this time

METAR text: MUGM 182356Z 08005KT 9999 FEW030 BKN100 26/22 A3001 RMK SLP161 T02620218 10281 20262 51011
Conditions at: MUGM (GUANTANAMO BAY , CU) observed 2356 UTC 18 January 2019
Temperature: 26.2°C (79°F)
Dewpoint: 21.8°C (71°F) [RH = 77%]
Pressure (altimeter): 30.01 inches Hg (1016.3 mb)
[Sea-level pressure: 1016.1 mb]
Winds: from the E (80 degrees) at 6 MPH (5 knots; 2.6 m/s)
Visibility: 6 or more miles (10+ km)
Ceiling: 10000 feet AGL
Clouds: few clouds at 3000 feet AGL
broken clouds at 10000 feet AGL
Weather: no significant weather observed at this time

METAR text: MUGM 182256Z 11010KT 9999 SCT030 BKN100 26/21 A3000 RMK SLP158 SHRA DSNT NW T02630206
Conditions at: MUGM (GUANTANAMO BAY , CU) observed 2256 UTC 18 January 2019
Temperature: 26.3°C (79°F)
Dewpoint: 20.6°C (69°F) [RH = 71%]
Pressure (altimeter): 30.00 inches Hg (1016.0 mb)
[Sea-level pressure: 1015.8 mb]
Winds: from the ESE (110 degrees) at 12 MPH (10 knots; 5.1 m/s)
Visibility: 6 or more miles (10+ km)
Ceiling: 10000 feet AGL
Clouds: scattered clouds at 3000 feet AGL
broken clouds at 10000 feet AGL
Weather: no significant weather observed at this time

METAR text: MUGM 182156Z 11013KT 9999 SCT030 BKN100 27/21 A2999 RMK SLP156 SHRA DSNT NW AND NE T02680214
Conditions at: MUGM (GUANTANAMO BAY , CU) observed 2156 UTC 18 January 2019
Temperature: 26.8°C (80°F)
Dewpoint: 21.4°C (71°F) [RH = 72%]
Pressure (altimeter): 29.99 inches Hg (1015.7 mb)
[Sea-level pressure: 1015.6 mb]
Winds: from the ESE (110 degrees) at 15 MPH (13 knots; 6.7 m/s)
Visibility: 6 or more miles (10+ km)
Ceiling: 10000 feet AGL
Clouds: scattered clouds at 3000 feet AGL
broken clouds at 10000 feet AGL
Weather: no significant weather observed at this time

METAR text: MUGM 182056Z 12013KT 9999 FEW030 BKN100 27/22 A2997 RMK SLP150 SHRA DSNT N AND NE T02710217 56016
Conditions at: MUGM (GUANTANAMO BAY , CU) observed 2056 UTC 18 January 2019
Temperature: 27.1°C (81°F)
Dewpoint: 21.7°C (71°F) [RH = 72%]
Pressure (altimeter): 29.97 inches Hg (1015.0 mb)
[Sea-level pressure: 1015.0 mb]
Winds: from the ESE (120 degrees) at 15 MPH (13 knots; 6.7 m/s)
Visibility: 6 or more miles (10+ km)
Ceiling: 10000 feet AGL
Clouds: few clouds at 3000 feet AGL
broken clouds at 10000 feet AGL
Weather: no significant weather observed at this time

METAR text: MUGM 181956Z 13012KT 9999 SCT030 BKN100 28/22 A2998 RMK SLP154 SHRA DSNT NE T02750217
Conditions at: MUGM (GUANTANAMO BAY , CU) observed 1956 UTC 18 January 2019
Temperature: 27.5°C (82°F)
Dewpoint: 21.7°C (71°F) [RH = 71%]
Pressure (altimeter): 29.98 inches Hg (1015.3 mb)
[Sea-level pressure: 1015.4 mb]
Winds: from the SE (130 degrees) at 14 MPH (12 knots; 6.2 m/s)
Visibility: 6 or more miles (10+ km)
Ceiling: 10000 feet AGL
Clouds: scattered clouds at 3000 feet AGL
broken clouds at 10000 feet AGL
Weather: no significant weather observed at this time

METAR text: MUGM 181856Z 13012KT 9999 SCT030 BKN100 28/22 A3000 RMK SLP159 SHRA DSNT NE T02810217
Conditions at: MUGM (GUANTANAMO BAY , CU) observed 1856 UTC 18 January 2019
Temperature: 28.1°C (83°F)
Dewpoint: 21.7°C (71°F) [RH = 68%]
Pressure (altimeter): 30.00 inches Hg (1016.0 mb)
[Sea-level pressure: 1015.9 mb]
Winds: from the SE (130 degrees) at 14 MPH (12 knots; 6.2 m/s)
Visibility: 6 or more miles (10+ km)
Ceiling: 10000 feet AGL
Clouds: scattered clouds at 3000 feet AGL
broken clouds at 10000 feet AGL
Weather: no significant weather observed at this time

METAR text: MUGM 181756Z 14011KT 9999 FEW030 SCT100 27/21 A3002 RMK SLP166 T02710208 10271 20198 58023
Conditions at: MUGM (GUANTANAMO BAY , CU) observed 1756 UTC 18 January 2019
Temperature: 27.1°C (81°F)
Dewpoint: 20.8°C (69°F) [RH = 69%]
Pressure (altimeter): 30.02 inches Hg (1016.7 mb)
[Sea-level pressure: 1016.6 mb]
Winds: from the SE (140 degrees) at 13 MPH (11 knots; 5.7 m/s)
Visibility: 6 or more miles (10+ km)
Ceiling: at least 12,000 feet AGL
Clouds: few clouds at 3000 feet AGL
scattered clouds at 10000 feet AGL
Weather: no significant weather observed at this time

METAR text: MUGM 181656Z 15007KT 9999 FEW030 SCT100 27/19 A3005 RMK SLP177 T02670194
Conditions at: MUGM (GUANTANAMO BAY , CU) observed 1656 UTC 18 January 2019
Temperature: 26.7°C (80°F)
Dewpoint: 19.4°C (67°F) [RH = 64%]
Pressure (altimeter): 30.05 inches Hg (1017.7 mb)
[Sea-level pressure: 1017.7 mb]
Winds: from the SSE (150 degrees) at 8 MPH (7 knots; 3.6 m/s)
Visibility: 6 or more miles (10+ km)
Ceiling: at least 12,000 feet AGL
Clouds: few clouds at 3000 feet AGL
scattered clouds at 10000 feet AGL
Weather: no significant weather observed at this time

METAR text: MUGM 181556Z VRB04KT 9999 FEW030 SCT100 27/19 A3008 RMK SLP187 T02680193
Conditions at: MUGM (GUANTANAMO BAY , CU) observed 1556 UTC 18 January 2019
Temperature: 26.8°C (80°F)
Dewpoint: 19.3°C (67°F) [RH = 64%]
Pressure (altimeter): 30.08 inches Hg (1018.7 mb)
[Sea-level pressure: 1018.7 mb]
Winds: variable direction winds at 5 MPH (4 knots; 2.1 m/s)
Visibility: 6 or more miles (10+ km)
Ceiling: at least 12,000 feet AGL
Clouds: few clouds at 3000 feet AGL
scattered clouds at 10000 feet AGL
Weather: no significant weather observed at this time

METAR text: MUGM 181456Z 34006KT 9999 FEW030 SCT100 27/21 A3009 RMK SLP189 T02670205 51012
Conditions at: MUGM (GUANTANAMO BAY , CU) observed 1456 UTC 18 January 2019
Temperature: 26.7°C (80°F)
Dewpoint: 20.5°C (69°F) [RH = 69%]
Pressure (altimeter): 30.09 inches Hg (1019.0 mb)
[Sea-level pressure: 1018.9 mb]
Winds: from the NNW (340 degrees) at 7 MPH (6 knots; 3.1 m/s)
Visibility: 6 or more miles (10+ km)
Ceiling: at least 12,000 feet AGL
Clouds: few clouds at 3000 feet AGL
scattered clouds at 10000 feet AGL
Weather: no significant weather observed at this time

METAR text: MUGM 181356Z 36008KT 9999 FEW030 FEW100 24/20 A3008 RMK SLP187 T02410195
Conditions at: MUGM (GUANTANAMO BAY , CU) observed 1356 UTC 18 January 2019
Temperature: 24.1°C (75°F)
Dewpoint: 19.5°C (67°F) [RH = 76%]
Pressure (altimeter): 30.08 inches Hg (1018.7 mb)
[Sea-level pressure: 1018.7 mb]
Winds: from the N (360 degrees) at 9 MPH (8 knots; 4.1 m/s)
Visibility: 6 or more miles (10+ km)
Ceiling: at least 12,000 feet AGL
Clouds: few clouds at 3000 feet AGL
few clouds at 10000 feet AGL
Weather: no significant weather observed at this time

METAR text: MUGM 181256Z 36007KT 9999 FEW030 FEW100 21/19 A3007 RMK SLP182 T02080192
Conditions at: MUGM (GUANTANAMO BAY , CU) observed 1256 UTC 18 January 2019
Temperature: 20.8°C (69°F)
Dewpoint: 19.2°C (67°F) [RH = 91%]
Pressure (altimeter): 30.07 inches Hg (1018.4 mb)
[Sea-level pressure: 1018.2 mb]
Winds: from the N (360 degrees) at 8 MPH (7 knots; 3.6 m/s)
Visibility: 6 or more miles (10+ km)
Ceiling: at least 12,000 feet AGL
Clouds: few clouds at 3000 feet AGL
few clouds at 10000 feet AGL
Weather: no significant weather observed at this time

METAR text: MUGM 181156Z 02009KT 9999 FEW030 FEW100 20/19 A3005 RMK SLP177 T01980188 10211 20198 53010
Conditions at: MUGM (GUANTANAMO BAY , CU) observed 1156 UTC 18 January 2019
Temperature: 19.8°C (68°F)
Dewpoint: 18.8°C (66°F) [RH = 94%]
Pressure (altimeter): 30.05 inches Hg (1017.7 mb)
[Sea-level pressure: 1017.7 mb]
Winds: from the NNE (20 degrees) at 10 MPH (9 knots; 4.6 m/s)
Visibility: 6 or more miles (10+ km)
Ceiling: at least 12,000 feet AGL
Clouds: few clouds at 3000 feet AGL
few clouds at 10000 feet AGL
Weather: no significant weather observed at this time

METAR text: MUGM 181056Z 35007KT 9999 FEW030 FEW100 21/19 A3004 RMK SLP172 T02070192
Conditions at: MUGM (GUANTANAMO BAY , CU) observed 1056 UTC 18 January 2019
Temperature: 20.7°C (69°F)
Dewpoint: 19.2°C (67°F) [RH = 91%]
Pressure (altimeter): 30.04 inches Hg (1017.4 mb)
[Sea-level pressure: 1017.2 mb]
Winds: from the N (350 degrees) at 8 MPH (7 knots; 3.6 m/s)
Visibility: 6 or more miles (10+ km)
Ceiling: at least 12,000 feet AGL
Clouds: few clouds at 3000 feet AGL
few clouds at 10000 feet AGL
Weather: no significant weather observed at this time

METAR text: MUGM 180956Z 35005KT 9999 FEW100 21/19 A3003 RMK SLP169 T02050190
Conditions at: MUGM (GUANTANAMO BAY , CU) observed 0956 UTC 18 January 2019
Temperature: 20.5°C (69°F)
Dewpoint: 19.0°C (66°F) [RH = 91%]
Pressure (altimeter): 30.03 inches Hg (1017.0 mb)
[Sea-level pressure: 1016.9 mb]
Winds: from the N (350 degrees) at 6 MPH (5 knots; 2.6 m/s)
Visibility: 6 or more miles (10+ km)
Ceiling: at least 12,000 feet AGL
Clouds: few clouds at 10000 feet AGL
Weather: no significant weather observed at this time

METAR text: MUGM 180856Z 33006KT 9999 FEW100 20/19 A3002 RMK SLP167 T02040191 56009
Conditions at: MUGM (GUANTANAMO BAY , CU) observed 0856 UTC 18 January 2019
Temperature: 20.4°C (69°F)
Dewpoint: 19.1°C (66°F) [RH = 92%]
Pressure (altimeter): 30.02 inches Hg (1016.7 mb)
[Sea-level pressure: 1016.7 mb]
Winds: from the NNW (330 degrees) at 7 MPH (6 knots; 3.1 m/s)
Visibility: 6 or more miles (10+ km)
Ceiling: at least 12,000 feet AGL
Clouds: few clouds at 10000 feet AGL
Weather: no significant weather observed at this time

METAR text: MUGM 180755Z 34007KT 9999 FEW100 21/19 A3003 RMK SLP169 T02060191
Conditions at: MUGM (GUANTANAMO BAY , CU) observed 0755 UTC 18 January 2019
Temperature: 20.6°C (69°F)
Dewpoint: 19.1°C (66°F) [RH = 91%]
Pressure (altimeter): 30.03 inches Hg (1017.0 mb)
[Sea-level pressure: 1016.9 mb]
Winds: from the NNW (340 degrees) at 8 MPH (7 knots; 3.6 m/s)
Visibility: 6 or more miles (10+ km)
Ceiling: at least 12,000 feet AGL
Clouds: few clouds at 10000 feet AGL
Weather: no significant weather observed at this time

METAR text: MUGM 180656Z 32007KT 9999 FEW100 21/19 A3003 RMK SLP170 T02110190
Conditions at: MUGM (GUANTANAMO BAY , CU) observed 0656 UTC 18 January 2019
Temperature: 21.1°C (70°F)
Dewpoint: 19.0°C (66°F) [RH = 88%]
Pressure (altimeter): 30.03 inches Hg (1017.0 mb)
[Sea-level pressure: 1017.0 mb]
Winds: from the NW (320 degrees) at 8 MPH (7 knots; 3.6 m/s)
Visibility: 6 or more miles (10+ km)
Ceiling: at least 12,000 feet AGL
Clouds: few clouds at 10000 feet AGL
Weather: no significant weather observed at this time

METAR text: MUGM 180556Z 33008KT 9999 FEW100 21/19 A3005 RMK SLP177 T02110190 10244 10211 58015
Conditions at: MUGM (GUANTANAMO BAY , CU) observed 0556 UTC 18 January 2019
Temperature: 21.1°C (70°F)
Dewpoint: 19.0°C (66°F) [RH = 88%]
Pressure (altimeter): 30.05 inches Hg (1017.7 mb)
[Sea-level pressure: 1017.7 mb]
Winds: from the NNW (330 degrees) at 9 MPH (8 knots; 4.1 m/s)
Visibility: 6 or more miles (10+ km)
Ceiling: at least 12,000 feet AGL
Clouds: few clouds at 10000 feet AGL
Weather: no significant weather observed at this time

METAR text: MUGM 180456Z 35006KT 9999 FEW100 22/19 A3007 RMK SLP183 T02180194 402890202
Conditions at: MUGM (GUANTANAMO BAY , CU) observed 0456 UTC 18 January 2019
Temperature: 21.8°C (71°F)
Dewpoint: 19.4°C (67°F) [RH = 86%]
Pressure (altimeter): 30.07 inches Hg (1018.4 mb)
[Sea-level pressure: 1018.3 mb]
Winds: from the N (350 degrees) at 7 MPH (6 knots; 3.1 m/s)
Visibility: 6 or more miles (10+ km)
Ceiling: at least 12,000 feet AGL
Clouds: few clouds at 10000 feet AGL
Weather: no significant weather observed at this time

METAR text: MUGM 180355Z 34006KT 9999 BKN100 22/20 A3009 RMK SLP190 T02240199
Conditions at: MUGM (GUANTANAMO BAY , CU) observed 0355 UTC 18 January 2019
Temperature: 22.4°C (72°F)
Dewpoint: 19.9°C (68°F) [RH = 86%]
Pressure (altimeter): 30.09 inches Hg (1019.0 mb)
[Sea-level pressure: 1019.0 mb]
Winds: from the NNW (340 degrees) at 7 MPH (6 knots; 3.1 m/s)
Visibility: 6 or more miles (10+ km)
Ceiling: 10000 feet AGL
Clouds: broken clouds at 10000 feet AGL
Weather: no significant weather observed at this time

METAR text: MUGM 180256Z 33008KT 9999 BKN100 23/20 A3010 RMK SLP192 T02330200 51010
Conditions at: MUGM (GUANTANAMO BAY , CU) observed 0256 UTC 18 January 2019
Temperature: 23.3°C (74°F)
Dewpoint: 20.0°C (68°F) [RH = 82%]
Pressure (altimeter): 30.10 inches Hg (1019.4 mb)
[Sea-level pressure: 1019.2 mb]
Winds: from the NNW (330 degrees) at 9 MPH (8 knots; 4.1 m/s)
Visibility: 6 or more miles (10+ km)
Ceiling: 10000 feet AGL
Clouds: broken clouds at 10000 feet AGL
Weather: no significant weather observed at this time

METAR text: MUGM 180156Z 35007KT 9999 BKN100 23/20 A3009 RMK SLP190 T02330200
Conditions at: MUGM (GUANTANAMO BAY , CU) observed 0156 UTC 18 January 2019
Temperature: 23.3°C (74°F)
Dewpoint: 20.0°C (68°F) [RH = 82%]
Pressure (altimeter): 30.09 inches Hg (1019.0 mb)
[Sea-level pressure: 1019.0 mb]
Winds: from the N (350 degrees) at 8 MPH (7 knots; 3.6 m/s)
Visibility: 6 or more miles (10+ km)
Ceiling: 10000 feet AGL
Clouds: broken clouds at 10000 feet AGL
Weather: no significant weather observed at this time

METAR text: MUGM 180056Z 35007KT 9999 BKN100 24/21 A3008 RMK SLP185 T02390206
Conditions at: MUGM (GUANTANAMO BAY , CU) observed 0056 UTC 18 January 2019
Temperature: 23.9°C (75°F)
Dewpoint: 20.6°C (69°F) [RH = 82%]
Pressure (altimeter): 30.08 inches Hg (1018.7 mb)
[Sea-level pressure: 1018.5 mb]
Winds: from the N (350 degrees) at 8 MPH (7 knots; 3.6 m/s)
Visibility: 6 or more miles (10+ km)
Ceiling: 10000 feet AGL
Clouds: broken clouds at 10000 feet AGL
Weather: no significant weather observed at this time

METAR text: MUGM 172356Z 34008KT 9999 BKN090 24/21 A3006 RMK SLP181 T02440206 10289 20244 53010
Conditions at: MUGM (GUANTANAMO BAY , CU) observed 2356 UTC 17 January 2019
Temperature: 24.4°C (76°F)
Dewpoint: 20.6°C (69°F) [RH = 79%]
Pressure (altimeter): 30.06 inches Hg (1018.0 mb)
[Sea-level pressure: 1018.1 mb]
Winds: from the NNW (340 degrees) at 9 MPH (8 knots; 4.1 m/s)
Visibility: 6 or more miles (10+ km)
Ceiling: 9000 feet AGL
Clouds: broken clouds at 9000 feet AGL
Weather: no significant weather observed at this time

METAR text: MUGM 172256Z 35008KT 9999 FEW030 BKN070 25/21 A3005 RMK SLP177 T02500206
Conditions at: MUGM (GUANTANAMO BAY , CU) observed 2256 UTC 17 January 2019
Temperature: 25.0°C (77°F)
Dewpoint: 20.6°C (69°F) [RH = 77%]
Pressure (altimeter): 30.05 inches Hg (1017.7 mb)
[Sea-level pressure: 1017.7 mb]
Winds: from the N (350 degrees) at 9 MPH (8 knots; 4.1 m/s)
Visibility: 6 or more miles (10+ km)
Ceiling: 7000 feet AGL
Clouds: few clouds at 3000 feet AGL
broken clouds at 7000 feet AGL
Weather: no significant weather observed at this time

Forecast for: MUGM (GUANTANAMO BAY , CU)
Text: TAF MUGM 1907/2007 34009KT 9999 SCT030 SCT070 QNH2994INS
Forecast period: 0700 to 1500 UTC 19 January 2019
Forecast type: FROM: standard forecast or significant change
Winds: from the NNW (340 degrees) at 10 MPH (9 knots; 4.6 m/s)
Visibility: 6 or more miles 10+ km)
Ceiling: at least 12,000 feet AGL
Clouds: scattered clouds at 3000 feet AGL
scattered clouds at 7000 feet AGL
Weather: no significant weather forecast for this period
Text: BECMG 1915/1917 13014G22KT QNH2990INS
Forecast period: 1500 UTC 19 January 2019 to 0300 UTC 20 January 2019
Forecast type: BECOMING: Conditions expected to become as follows by 1700 UTC 19 January 2019
Winds: from the SE (130 degrees) at 16 MPH (14 knots; 7.2 m/s)
gusting to 25 MPH (22 knots; 11.3 m/s)
Visibility: 6 or more miles 10+ km)
Ceiling: at least 12,000 feet AGL
Clouds: scattered clouds at 3000 feet AGL
scattered clouds at 7000 feet AGL
Weather: no significant weather forecast for this period
Text: BECMG 2003/2005 36007KT QNH2991INS T21/1912Z T28/1918Z FN00205
Forecast period: 0300 to 0700 UTC 20 January 2019
Forecast type: BECOMING: Conditions expected to become as follows by 0500 UTC 20 January 2019
Winds: from the N (360 degrees) at 8 MPH (7 knots; 3.6 m/s)
Visibility: 0.13 miles (0.21 km)
Ceiling: at least 12,000 feet AGL
Clouds: scattered clouds at 3000 feet AGL
scattered clouds at 7000 feet AGL
Weather: no significant weather forecast for this period